Demossville, Kentucky
Current Conditions -  °F | °C
As of 9:53 AM on Wednesday 26 Nov 2014 (Local Time) from KLUK Reporting Station
Overcast Overcast  
Wind Chill: 26°   Ceiling: 1900
Heat Index: 32°   Visibility: 7mi
Dew Point: 27°   Wind: 7mph
Humidity: 82%   Direction: 50°NE
Pressure: 30.17"   Gusts: NA
Location:  38.8043°N, 84.4185°W
Report Text: KLUK 261453Z 05006KT 7SM OVC019 00/M03 A3017 RMK AO2 SLP219 T00001028 51013
Loading
Personal Weather Stations






























Interactive Weather Map New forecast layout! Learn more

10-Day Weather Forecast

Advertisements
Track Severe Weather on mobile